sensor_id;sensor_type;location;lat;lon;timestamp;pressure;altitude;pressure_sealevel;temperature;humidity
28167;BME280;15455;53.376;-6.262;2023-03-13T00:01:52;98096.97;;;11.25;100.00
28167;BME280;15455;53.376;-6.262;2023-03-13T00:04:37;98070.78;;;11.26;100.00
28167;BME280;15455;53.376;-6.262;2023-03-13T00:07:23;98078.50;;;11.29;100.00
28167;BME280;15455;53.376;-6.262;2023-03-13T00:10:08;98071.34;;;11.33;100.00
28167;BME280;15455;53.376;-6.262;2023-03-13T00:12:54;98035.34;;;11.40;100.00
28167;BME280;15455;53.376;-6.262;2023-03-13T00:15:39;98018.75;;;11.41;100.00
28167;BME280;15455;53.376;-6.262;2023-03-13T00:18:24;97998.72;;;11.41;100.00
28167;BME280;15455;53.376;-6.262;2023-03-13T00:21:10;98008.47;;;11.38;100.00
28167;BME280;15455;53.376;-6.262;2023-03-13T00:23:57;98004.38;;;11.32;100.00
28167;BME280;15455;53.376;-6.262;2023-03-13T00:26:43;97993.34;;;11.27;100.00
28167;BME280;15455;53.376;-6.262;2023-03-13T00:29:29;97986.66;;;11.21;100.00
28167;BME280;15455;53.376;-6.262;2023-03-13T00:32:16;97978.13;;;11.18;100.00
28167;BME280;15455;53.376;-6.262;2023-03-13T00:35:02;97985.34;;;11.12;100.00
28167;BME280;15455;53.376;-6.262;2023-03-13T00:37:47;97972.44;;;11.09;100.00
28167;BME280;15455;53.376;-6.262;2023-03-13T00:40:32;97983.72;;;11.10;100.00
28167;BME280;15455;53.376;-6.262;2023-03-13T00:43:18;97967.44;;;11.05;100.00
28167;BME280;15455;53.376;-6.262;2023-03-13T00:46:04;97961.47;;;11.03;100.00
28167;BME280;15455;53.376;-6.262;2023-03-13T00:48:50;97959.75;;;11.02;100.00
28167;BME280;15455;53.376;-6.262;2023-03-13T00:51:36;97952.00;;;11.00;100.00
28167;BME280;15455;53.376;-6.262;2023-03-13T00:54:21;97932.13;;;10.98;100.00
28167;BME280;15455;53.376;-6.262;2023-03-13T00:57:07;97936.44;;;10.99;100.00
28167;BME280;15455;53.376;-6.262;2023-03-13T00:59:53;97941.81;;;10.95;100.00
28167;BME280;15455;53.376;-6.262;2023-03-13T01:02:42;97925.38;;;10.93;100.00
28167;BME280;15455;53.376;-6.262;2023-03-13T01:05:27;97921.16;;;10.91;100.00
28167;BME280;15455;53.376;-6.262;2023-03-13T01:08:15;97919.38;;;10.91;100.00
28167;BME280;15455;53.376;-6.262;2023-03-13T01:11:06;97906.97;;;10.97;100.00
28167;BME280;15455;53.376;-6.262;2023-03-13T01:13:54;97899.22;;;10.95;100.00
28167;BME280;15455;53.376;-6.262;2023-03-13T01:16:40;97881.88;;;10.94;100.00
28167;BME280;15455;53.376;-6.262;2023-03-13T01:19:25;97897.69;;;10.91;100.00
28167;BME280;15455;53.376;-6.262;2023-03-13T01:22:11;97894.50;;;10.84;100.00
28167;BME280;15455;53.376;-6.262;2023-03-13T01:24:56;97896.22;;;10.85;100.00
28167;BME280;15455;53.376;-6.262;2023-03-13T01:27:42;97893.69;;;10.84;100.00
28167;BME280;15455;53.376;-6.262;2023-03-13T01:30:27;97879.94;;;10.80;100.00
28167;BME280;15455;53.376;-6.262;2023-03-13T01:33:13;97876.50;;;10.80;100.00
28167;BME280;15455;53.376;-6.262;2023-03-13T01:36:01;97873.41;;;10.71;100.00
28167;BME280;15455;53.376;-6.262;2023-03-13T01:38:50;97880.41;;;10.71;100.00
28167;BME280;15455;53.376;-6.262;2023-03-13T01:41:36;97882.19;;;10.70;100.00
28167;BME280;15455;53.376;-6.262;2023-03-13T01:44:24;97875.25;;;10.69;100.00
28167;BME280;15455;53.376;-6.262;2023-03-13T01:47:11;97878.78;;;10.68;100.00
28167;BME280;15455;53.376;-6.262;2023-03-13T01:50:14;97876.41;;;10.81;100.00
28167;BME280;15455;53.376;-6.262;2023-03-13T01:53:09;97855.16;;;10.89;100.00
28167;BME280;15455;53.376;-6.262;2023-03-13T01:55:56;97847.19;;;10.92;100.00
28167;BME280;15455;53.376;-6.262;2023-03-13T01:58:43;97828.13;;;10.90;100.00
28167;BME280;15455;53.376;-6.262;2023-03-13T02:01:29;97831.06;;;10.84;100.00
28167;BME280;15455;53.376;-6.262;2023-03-13T02:04:17;97831.16;;;10.82;100.00
28167;BME280;15455;53.376;-6.262;2023-03-13T02:07:09;97834.28;;;10.89;100.00
28167;BME280;15455;53.376;-6.262;2023-03-13T02:09:57;97820.16;;;10.93;100.00
28167;BME280;15455;53.376;-6.262;2023-03-13T02:12:45;97822.59;;;10.96;100.00
28167;BME280;15455;53.376;-6.262;2023-03-13T02:15:31;97818.91;;;11.00;100.00
28167;BME280;15455;53.376;-6.262;2023-03-13T02:18:18;97803.19;;;11.02;100.00
28167;BME280;15455;53.376;-6.262;2023-03-13T02:27:04;97802.50;;;10.98;100.00
28167;BME280;15455;53.376;-6.262;2023-03-13T02:29:56;97803.50;;;10.95;100.00
28167;BME280;15455;53.376;-6.262;2023-03-13T02:32:43;97798.28;;;10.95;100.00
28167;BME280;15455;53.376;-6.262;2023-03-13T02:35:30;97765.44;;;10.91;100.00
28167;BME280;15455;53.376;-6.262;2023-03-13T02:38:23;97746.50;;;10.88;100.00
28167;BME280;15455;53.376;-6.262;2023-03-13T02:41:10;97744.72;;;10.88;100.00
28167;BME280;15455;53.376;-6.262;2023-03-13T02:43:57;97730.53;;;10.94;100.00
28167;BME280;15455;53.376;-6.262;2023-03-13T02:46:45;97723.34;;;10.98;100.00
28167;BME280;15455;53.376;-6.262;2023-03-13T02:49:32;97711.25;;;10.97;100.00
28167;BME280;15455;53.376;-6.262;2023-03-13T02:52:30;97701.91;;;10.92;100.00
28167;BME280;15455;53.376;-6.262;2023-03-13T02:55:22;97697.09;;;10.85;100.00
28167;BME280;15455;53.376;-6.262;2023-03-13T02:58:09;97684.59;;;10.74;100.00
28167;BME280;15455;53.376;-6.262;2023-03-13T03:00:55;97685.03;;;10.66;100.00
28167;BME280;15455;53.376;-6.262;2023-03-13T03:03:41;97686.56;;;10.70;100.00
28167;BME280;15455;53.376;-6.262;2023-03-13T03:06:26;97677.28;;;10.65;100.00
28167;BME280;15455;53.376;-6.262;2023-03-13T03:09:13;97667.84;;;10.62;100.00
28167;BME280;15455;53.376;-6.262;2023-03-13T03:11:58;97659.25;;;10.60;100.00
28167;BME280;15455;53.376;-6.262;2023-03-13T03:14:45;97667.16;;;10.58;100.00
28167;BME280;15455;53.376;-6.262;2023-03-13T03:17:32;97662.97;;;10.56;100.00
28167;BME280;15455;53.376;-6.262;2023-03-13T03:20:17;97657.66;;;10.57;100.00
28167;BME280;15455;53.376;-6.262;2023-03-13T03:23:04;97642.09;;;10.56;100.00
28167;BME280;15455;53.376;-6.262;2023-03-13T03:25:49;97646.53;;;10.54;100.00
28167;BME280;15455;53.376;-6.262;2023-03-13T03:28:35;97643.84;;;10.55;100.00
28167;BME280;15455;53.376;-6.262;2023-03-13T03:31:25;97641.94;;;10.59;100.00
28167;BME280;15455;53.376;-6.262;2023-03-13T03:34:13;97626.13;;;10.62;100.00
28167;BME280;15455;53.376;-6.262;2023-03-13T03:36:59;97624.25;;;10.64;100.00
28167;BME280;15455;53.376;-6.262;2023-03-13T03:39:46;97618.13;;;10.65;100.00
28167;BME280;15455;53.376;-6.262;2023-03-13T03:42:32;97629.56;;;10.63;100.00
28167;BME280;15455;53.376;-6.262;2023-03-13T03:45:19;97622.91;;;10.57;100.00
28167;BME280;15455;53.376;-6.262;2023-03-13T03:48:04;97629.53;;;10.47;100.00
28167;BME280;15455;53.376;-6.262;2023-03-13T03:50:50;97616.28;;;10.34;100.00
28167;BME280;15455;53.376;-6.262;2023-03-13T03:53:36;97625.72;;;10.19;100.00
28167;BME280;15455;53.376;-6.262;2023-03-13T03:56:21;97607.00;;;10.11;100.00
28167;BME280;15455;53.376;-6.262;2023-03-13T03:59:12;97596.13;;;10.02;100.00
28167;BME280;15455;53.376;-6.262;2023-03-13T04:02:04;97616.16;;;10.02;100.00
28167;BME280;15455;53.376;-6.262;2023-03-13T04:04:50;97582.59;;;9.96;100.00
28167;BME280;15455;53.376;-6.262;2023-03-13T04:07:44;97579.22;;;9.94;100.00
28167;BME280;15455;53.376;-6.262;2023-03-13T04:10:29;97564.97;;;9.83;100.00
28167;BME280;15455;53.376;-6.262;2023-03-13T04:13:15;97602.00;;;9.72;100.00
28167;BME280;15455;53.376;-6.262;2023-03-13T04:16:06;97583.38;;;9.63;100.00
28167;BME280;15455;53.376;-6.262;2023-03-13T04:18:53;97565.22;;;9.44;100.00
28167;BME280;15455;53.376;-6.262;2023-03-13T04:21:41;97565.81;;;9.31;100.00
28167;BME280;15455;53.376;-6.262;2023-03-13T04:24:31;97566.88;;;9.27;100.00
28167;BME280;15455;53.376;-6.262;2023-03-13T04:27:17;97564.56;;;9.21;100.00
28167;BME280;15455;53.376;-6.262;2023-03-13T04:30:05;97563.91;;;9.17;100.00
28167;BME280;15455;53.376;-6.262;2023-03-13T04:33:12;97539.53;;;9.18;100.00
28167;BME280;15455;53.376;-6.262;2023-03-13T04:36:06;97529.38;;;9.14;100.00
28167;BME280;15455;53.376;-6.262;2023-03-13T04:39:06;97549.19;;;9.16;100.00
28167;BME280;15455;53.376;-6.262;2023-03-13T04:42:24;97568.22;;;9.17;100.00
28167;BME280;15455;53.376;-6.262;2023-03-13T04:45:28;97559.53;;;9.18;100.00
28167;BME280;15455;53.376;-6.262;2023-03-13T04:48:36;97551.88;;;9.15;100.00
28167;BME280;15455;53.376;-6.262;2023-03-13T04:51:54;97557.66;;;9.02;100.00
28167;BME280;15455;53.376;-6.262;2023-03-13T04:54:49;97576.78;;;9.01;100.00
28167;BME280;15455;53.376;-6.262;2023-03-13T04:57:59;97576.44;;;8.90;100.00
28167;BME280;15455;53.376;-6.262;2023-03-13T05:01:11;97584.53;;;8.84;100.00
28167;BME280;15455;53.376;-6.262;2023-03-13T05:04:17;97564.00;;;8.78;100.00
28167;BME280;15455;53.376;-6.262;2023-03-13T05:07:37;97550.31;;;8.74;100.00
28167;BME280;15455;53.376;-6.262;2023-03-13T05:10:30;97550.47;;;8.71;100.00
28167;BME280;15455;53.376;-6.262;2023-03-13T05:13:34;97549.59;;;8.71;100.00
28167;BME280;15455;53.376;-6.262;2023-03-13T05:16:46;97542.78;;;8.68;100.00
28167;BME280;15455;53.376;-6.262;2023-03-13T05:19:49;97546.47;;;8.64;100.00
28167;BME280;15455;53.376;-6.262;2023-03-13T05:22:52;97547.31;;;8.64;100.00
28167;BME280;15455;53.376;-6.262;2023-03-13T05:25:56;97522.22;;;8.63;100.00
28167;BME280;15455;53.376;-6.262;2023-03-13T05:29:02;97514.34;;;8.65;100.00
28167;BME280;15455;53.376;-6.262;2023-03-13T05:31:59;97535.78;;;8.70;100.00
28167;BME280;15455;53.376;-6.262;2023-03-13T05:35:20;97536.88;;;8.83;100.00
28167;BME280;15455;53.376;-6.262;2023-03-13T05:38:19;97533.16;;;8.89;100.00
28167;BME280;15455;53.376;-6.262;2023-03-13T05:41:31;97527.72;;;8.94;100.00
28167;BME280;15455;53.376;-6.262;2023-03-13T05:44:31;97524.28;;;8.93;100.00
28167;BME280;15455;53.376;-6.262;2023-03-13T05:47:23;97521.69;;;8.93;100.00
28167;BME280;15455;53.376;-6.262;2023-03-13T05:50:39;97518.19;;;8.94;100.00
28167;BME280;15455;53.376;-6.262;2023-03-13T05:53:37;97513.06;;;8.93;100.00
28167;BME280;15455;53.376;-6.262;2023-03-13T05:56:49;97515.44;;;8.97;100.00
28167;BME280;15455;53.376;-6.262;2023-03-13T05:59:51;97490.97;;;9.01;100.00
28167;BME280;15455;53.376;-6.262;2023-03-13T06:02:55;97497.75;;;9.04;100.00
28167;BME280;15455;53.376;-6.262;2023-03-13T06:05:48;97488.81;;;9.10;100.00
28167;BME280;15455;53.376;-6.262;2023-03-13T06:08:46;97486.00;;;9.14;100.00
28167;BME280;15455;53.376;-6.262;2023-03-13T06:11:32;97473.97;;;9.12;100.00
28167;BME280;15455;53.376;-6.262;2023-03-13T06:14:17;97488.81;;;9.10;100.00
28167;BME280;15455;53.376;-6.262;2023-03-13T06:17:15;97481.78;;;9.12;100.00
28167;BME280;15455;53.376;-6.262;2023-03-13T06:20:01;97482.53;;;9.14;100.00
28167;BME280;15455;53.376;-6.262;2023-03-13T06:22:46;97475.13;;;9.06;100.00
28167;BME280;15455;53.376;-6.262;2023-03-13T06:25:33;97472.13;;;8.96;100.00
28167;BME280;15455;53.376;-6.262;2023-03-13T06:28:19;97482.91;;;8.89;100.00
28167;BME280;15455;53.376;-6.262;2023-03-13T06:31:06;97491.84;;;8.83;100.00
28167;BME280;15455;53.376;-6.262;2023-03-13T06:33:53;97495.50;;;8.79;100.00
28167;BME280;15455;53.376;-6.262;2023-03-13T06:36:38;97498.66;;;8.85;100.00
28167;BME280;15455;53.376;-6.262;2023-03-13T06:39:25;97504.63;;;8.88;100.00
28167;BME280;15455;53.376;-6.262;2023-03-13T06:42:10;97493.56;;;8.82;100.00
28167;BME280;15455;53.376;-6.262;2023-03-13T06:44:56;97500.41;;;8.85;100.00
28167;BME280;15455;53.376;-6.262;2023-03-13T06:47:41;97494.13;;;8.89;100.00
28167;BME280;15455;53.376;-6.262;2023-03-13T06:50:27;97500.81;;;8.95;100.00
28167;BME280;15455;53.376;-6.262;2023-03-13T06:53:18;97489.66;;;8.93;100.00
28167;BME280;15455;53.376;-6.262;2023-03-13T06:56:04;97499.97;;;8.94;100.00
28167;BME280;15455;53.376;-6.262;2023-03-13T06:58:50;97485.03;;;8.98;100.00
28167;BME280;15455;53.376;-6.262;2023-03-13T07:01:36;97488.44;;;9.00;100.00
28167;BME280;15455;53.376;-6.262;2023-03-13T07:04:21;97487.66;;;8.98;100.00
28167;BME280;15455;53.376;-6.262;2023-03-13T07:07:07;97490.09;;;9.01;100.00
28167;BME280;15455;53.376;-6.262;2023-03-13T07:10:03;97488.13;;;9.06;100.00
28167;BME280;15455;53.376;-6.262;2023-03-13T07:12:49;97490.66;;;9.08;100.00
28167;BME280;15455;53.376;-6.262;2023-03-13T07:15:34;97495.69;;;9.11;100.00
28167;BME280;15455;53.376;-6.262;2023-03-13T07:18:21;97486.59;;;9.19;100.00
28167;BME280;15455;53.376;-6.262;2023-03-13T07:21:08;97490.56;;;9.27;100.00
28167;BME280;15455;53.376;-6.262;2023-03-13T07:23:54;97490.41;;;9.30;100.00
28167;BME280;15455;53.376;-6.262;2023-03-13T07:26:40;97493.81;;;9.32;100.00
28167;BME280;15455;53.376;-6.262;2023-03-13T07:29:41;97485.44;;;9.25;100.00
28167;BME280;15455;53.376;-6.262;2023-03-13T07:32:30;97501.97;;;9.24;100.00
28167;BME280;15455;53.376;-6.262;2023-03-13T07:35:17;97510.56;;;9.26;100.00
28167;BME280;15455;53.376;-6.262;2023-03-13T07:38:02;97504.06;;;9.35;100.00
28167;BME280;15455;53.376;-6.262;2023-03-13T07:40:53;97504.56;;;9.42;100.00
28167;BME280;15455;53.376;-6.262;2023-03-13T07:43:39;97510.47;;;9.45;100.00
28167;BME280;15455;53.376;-6.262;2023-03-13T07:46:25;97512.59;;;9.54;100.00
28167;BME280;15455;53.376;-6.262;2023-03-13T07:49:10;97513.16;;;9.61;100.00
28167;BME280;15455;53.376;-6.262;2023-03-13T07:51:56;97518.13;;;9.66;100.00
28167;BME280;15455;53.376;-6.262;2023-03-13T07:54:41;97516.13;;;9.71;100.00
28167;BME280;15455;53.376;-6.262;2023-03-13T07:57:27;97502.03;;;9.75;100.00
28167;BME280;15455;53.376;-6.262;2023-03-13T08:00:12;97508.81;;;9.78;100.00
28167;BME280;15455;53.376;-6.262;2023-03-13T08:03:01;97507.16;;;9.77;100.00
28167;BME280;15455;53.376;-6.262;2023-03-13T08:06:02;97504.06;;;9.86;100.00
28167;BME280;15455;53.376;-6.262;2023-03-13T08:08:49;97504.19;;;10.00;100.00
28167;BME280;15455;53.376;-6.262;2023-03-13T08:11:37;97496.81;;;10.08;100.00
28167;BME280;15455;53.376;-6.262;2023-03-13T08:14:25;97512.13;;;10.15;100.00
28167;BME280;15455;53.376;-6.262;2023-03-13T08:17:10;97503.31;;;10.17;100.00
28167;BME280;15455;53.376;-6.262;2023-03-13T08:19:56;97500.25;;;10.09;100.00
28167;BME280;15455;53.376;-6.262;2023-03-13T08:22:42;97503.94;;;10.05;100.00
28167;BME280;15455;53.376;-6.262;2023-03-13T08:25:27;97506.13;;;9.97;100.00
28167;BME280;15455;53.376;-6.262;2023-03-13T08:28:12;97507.38;;;9.89;100.00
28167;BME280;15455;53.376;-6.262;2023-03-13T08:30:58;97528.28;;;9.88;100.00
28167;BME280;15455;53.376;-6.262;2023-03-13T08:33:44;97531.03;;;9.85;100.00
28167;BME280;15455;53.376;-6.262;2023-03-13T08:36:35;97520.47;;;9.88;100.00
28167;BME280;15455;53.376;-6.262;2023-03-13T08:39:21;97529.38;;;9.84;100.00
28167;BME280;15455;53.376;-6.262;2023-03-13T08:42:10;97526.69;;;9.85;100.00
28167;BME280;15455;53.376;-6.262;2023-03-13T08:44:58;97523.50;;;9.96;100.00
28167;BME280;15455;53.376;-6.262;2023-03-13T08:47:43;97524.53;;;10.09;100.00
28167;BME280;15455;53.376;-6.262;2023-03-13T08:50:28;97516.19;;;10.20;100.00
28167;BME280;15455;53.376;-6.262;2023-03-13T08:53:14;97511.41;;;10.29;100.00
28167;BME280;15455;53.376;-6.262;2023-03-13T08:55:59;97522.13;;;10.40;100.00
28167;BME280;15455;53.376;-6.262;2023-03-13T08:58:53;97516.66;;;10.45;100.00
28167;BME280;15455;53.376;-6.262;2023-03-13T09:01:39;97509.41;;;10.50;100.00
28167;BME280;15455;53.376;-6.262;2023-03-13T09:04:24;97515.97;;;10.57;100.00
28167;BME280;15455;53.376;-6.262;2023-03-13T09:07:10;97522.53;;;10.64;100.00
28167;BME280;15455;53.376;-6.262;2023-03-13T09:09:55;97517.50;;;10.61;100.00
28167;BME280;15455;53.376;-6.262;2023-03-13T09:12:41;97521.63;;;10.65;100.00
28167;BME280;15455;53.376;-6.262;2023-03-13T09:15:27;97524.31;;;10.64;100.00
28167;BME280;15455;53.376;-6.262;2023-03-13T09:18:12;97526.94;;;10.64;100.00
28167;BME280;15455;53.376;-6.262;2023-03-13T09:20:59;97527.75;;;10.64;100.00
28167;BME280;15455;53.376;-6.262;2023-03-13T09:23:46;97528.75;;;10.62;100.00
28167;BME280;15455;53.376;-6.262;2023-03-13T09:26:31;97539.28;;;10.60;100.00
28167;BME280;15455;53.376;-6.262;2023-03-13T09:29:17;97535.28;;;10.54;100.00
28167;BME280;15455;53.376;-6.262;2023-03-13T09:32:03;97542.06;;;10.57;100.00
28167;BME280;15455;53.376;-6.262;2023-03-13T09:34:49;97539.88;;;10.65;100.00
28167;BME280;15455;53.376;-6.262;2023-03-13T09:37:34;97542.56;;;10.80;100.00
28167;BME280;15455;53.376;-6.262;2023-03-13T09:40:22;97538.72;;;10.87;100.00
28167;BME280;15455;53.376;-6.262;2023-03-13T09:46:40;97534.72;;;11.11;100.00
28167;BME280;15455;53.376;-6.262;2023-03-13T09:52:25;97521.81;;;11.24;100.00
28167;BME280;15455;53.376;-6.262;2023-03-13T09:55:13;97534.41;;;11.32;100.00
28167;BME280;15455;53.376;-6.262;2023-03-13T09:58:09;97530.75;;;11.51;100.00
28167;BME280;15455;53.376;-6.262;2023-03-13T10:01:00;97532.47;;;11.66;100.00
28167;BME280;15455;53.376;-6.262;2023-03-13T10:04:20;97532.94;;;11.73;100.00
28167;BME280;15455;53.376;-6.262;2023-03-13T10:07:11;97537.25;;;11.74;100.00
28167;BME280;15455;53.376;-6.262;2023-03-13T10:09:59;97548.16;;;11.66;100.00
28167;BME280;15455;53.376;-6.262;2023-03-13T10:12:47;97548.09;;;11.52;100.00
28167;BME280;15455;53.376;-6.262;2023-03-13T10:15:41;97542.75;;;11.39;100.00
28167;BME280;15455;53.376;-6.262;2023-03-13T10:18:30;97544.53;;;11.38;100.00
28167;BME280;15455;53.376;-6.262;2023-03-13T10:21:21;97553.69;;;11.45;100.00
28167;BME280;15455;53.376;-6.262;2023-03-13T10:24:13;97555.13;;;11.51;100.00
28167;BME280;15455;53.376;-6.262;2023-03-13T10:27:00;97549.81;;;11.53;100.00
28167;BME280;15455;53.376;-6.262;2023-03-13T10:29:45;97553.16;;;11.55;100.00
28167;BME280;15455;53.376;-6.262;2023-03-13T10:32:31;97558.19;;;11.58;100.00
28167;BME280;15455;53.376;-6.262;2023-03-13T10:35:22;97552.78;;;11.61;100.00
28167;BME280;15455;53.376;-6.262;2023-03-13T10:38:18;97555.53;;;11.74;100.00
28167;BME280;15455;53.376;-6.262;2023-03-13T10:41:17;97542.94;;;11.80;100.00
28167;BME280;15455;53.376;-6.262;2023-03-13T10:44:06;97548.91;;;11.82;100.00
28167;BME280;15455;53.376;-6.262;2023-03-13T10:47:00;97547.25;;;11.81;100.00
28167;BME280;15455;53.376;-6.262;2023-03-13T10:49:51;97542.38;;;11.75;100.00
28167;BME280;15455;53.376;-6.262;2023-03-13T10:52:45;97547.91;;;11.85;100.00
28167;BME280;15455;53.376;-6.262;2023-03-13T10:55:31;97547.72;;;11.88;100.00
28167;BME280;15455;53.376;-6.262;2023-03-13T10:58:20;97555.00;;;11.83;100.00
28167;BME280;15455;53.376;-6.262;2023-03-13T11:01:23;97558.34;;;11.85;100.00
28167;BME280;15455;53.376;-6.262;2023-03-13T11:04:38;97561.13;;;11.98;100.00
28167;BME280;15455;53.376;-6.262;2023-03-13T11:07:29;97553.81;;;12.18;100.00
28167;BME280;15455;53.376;-6.262;2023-03-13T11:13:26;97541.31;;;12.51;100.00
28167;BME280;15455;53.376;-6.262;2023-03-13T11:16:25;97555.22;;;12.38;100.00
28167;BME280;15455;53.376;-6.262;2023-03-13T11:19:18;97555.91;;;12.12;100.00
28167;BME280;15455;53.376;-6.262;2023-03-13T11:22:17;97558.69;;;12.09;100.00
28167;BME280;15455;53.376;-6.262;2023-03-13T11:28:14;97576.28;;;11.91;100.00
28167;BME280;15455;53.376;-6.262;2023-03-13T11:31:14;97583.66;;;11.85;100.00
28167;BME280;15455;53.376;-6.262;2023-03-13T11:34:30;97586.06;;;11.88;100.00
28167;BME280;15455;53.376;-6.262;2023-03-13T11:37:20;97574.28;;;12.11;100.00
28167;BME280;15455;53.376;-6.262;2023-03-13T11:40:17;97568.97;;;12.41;100.00
28167;BME280;15455;53.376;-6.262;2023-03-13T11:55:36;97550.78;;;12.96;100.00
28167;BME280;15455;53.376;-6.262;2023-03-13T12:01:24;97549.69;;;13.40;100.00
28167;BME280;15455;53.376;-6.262;2023-03-13T12:04:13;97549.50;;;13.56;100.00
28167;BME280;15455;53.376;-6.262;2023-03-13T12:07:20;97542.63;;;13.55;100.00
28167;BME280;15455;53.376;-6.262;2023-03-13T12:13:28;97542.63;;;13.94;100.00
28167;BME280;15455;53.376;-6.262;2023-03-13T12:16:20;97538.75;;;14.12;100.00
28167;BME280;15455;53.376;-6.262;2023-03-13T12:19:14;97531.88;;;14.11;100.00
28167;BME280;15455;53.376;-6.262;2023-03-13T12:22:24;97547.06;;;14.19;100.00
28167;BME280;15455;53.376;-6.262;2023-03-13T12:34:22;97535.78;;;13.52;100.00
28167;BME280;15455;53.376;-6.262;2023-03-13T12:37:32;97530.13;;;13.59;100.00
28167;BME280;15455;53.376;-6.262;2023-03-13T12:40:38;97542.31;;;13.72;100.00
28167;BME280;15455;53.376;-6.262;2023-03-13T12:43:30;97544.94;;;13.72;100.00
28167;BME280;15455;53.376;-6.262;2023-03-13T13:04:14;97532.44;;;14.53;100.00
28167;BME280;15455;53.376;-6.262;2023-03-13T13:07:06;97526.22;;;14.54;100.00
28167;BME280;15455;53.376;-6.262;2023-03-13T13:16:04;97526.94;;;15.66;100.00
28167;BME280;15455;53.376;-6.262;2023-03-13T13:18:52;97509.59;;;15.99;100.00
28167;BME280;15455;53.376;-6.262;2023-03-13T13:21:38;97522.03;;;16.42;100.00
28167;BME280;15455;53.376;-6.262;2023-03-13T13:24:46;97515.09;;;16.41;100.00
28167;BME280;15455;53.376;-6.262;2023-03-13T13:38:55;97564.03;;;13.87;100.00
28167;BME280;15455;53.376;-6.262;2023-03-13T13:41:41;97622.34;;;13.09;100.00
28167;BME280;15455;53.376;-6.262;2023-03-13T13:44:28;97624.97;;;12.08;100.00
28167;BME280;15455;53.376;-6.262;2023-03-13T13:47:23;97640.94;;;11.57;100.00
28167;BME280;15455;53.376;-6.262;2023-03-13T13:50:26;97672.63;;;11.19;100.00
28167;BME280;15455;53.376;-6.262;2023-03-13T13:53:32;97680.50;;;10.86;100.00
28167;BME280;15455;53.376;-6.262;2023-03-13T14:05:04;97683.53;;;10.45;100.00
28167;BME280;15455;53.376;-6.262;2023-03-13T14:17:00;97702.66;;;10.61;100.00
28167;BME280;15455;53.376;-6.262;2023-03-13T14:19:47;97719.69;;;10.51;100.00
28167;BME280;15455;53.376;-6.262;2023-03-13T14:22:47;97736.88;;;10.20;100.00
28167;BME280;15455;53.376;-6.262;2023-03-13T14:26:35;97742.91;;;9.66;100.00
28167;BME280;15455;53.376;-6.262;2023-03-13T14:29:16;97741.66;;;9.37;100.00
28167;BME280;15455;53.376;-6.262;2023-03-13T14:32:02;97759.19;;;9.14;100.00
28167;BME280;15455;53.376;-6.262;2023-03-13T14:34:47;97763.22;;;9.01;100.00
28167;BME280;15455;53.376;-6.262;2023-03-13T14:37:44;97760.06;;;8.94;100.00
28167;BME280;15455;53.376;-6.262;2023-03-13T14:40:32;97766.69;;;9.01;100.00
28167;BME280;15455;53.376;-6.262;2023-03-13T14:43:28;97768.63;;;8.96;100.00
28167;BME280;15455;53.376;-6.262;2023-03-13T14:46:33;97774.88;;;8.92;100.00
28167;BME280;15455;53.376;-6.262;2023-03-13T14:49:20;97795.06;;;8.87;100.00
28167;BME280;15455;53.376;-6.262;2023-03-13T14:52:18;97816.03;;;8.82;100.00
28167;BME280;15455;53.376;-6.262;2023-03-13T14:55:27;97825.13;;;8.72;100.00
28167;BME280;15455;53.376;-6.262;2023-03-13T15:01:14;97844.56;;;8.63;100.00
28167;BME280;15455;53.376;-6.262;2023-03-13T15:04:05;97851.72;;;8.58;100.00
28167;BME280;15455;53.376;-6.262;2023-03-13T15:07:01;97853.66;;;8.53;100.00
28167;BME280;15455;53.376;-6.262;2023-03-13T15:09:48;97868.03;;;8.62;100.00
28167;BME280;15455;53.376;-6.262;2023-03-13T15:12:41;97874.72;;;8.67;100.00
28167;BME280;15455;53.376;-6.262;2023-03-13T15:15:27;97885.72;;;8.74;100.00
28167;BME280;15455;53.376;-6.262;2023-03-13T15:18:24;97887.38;;;8.77;100.00
28167;BME280;15455;53.376;-6.262;2023-03-13T15:24:12;97885.06;;;8.69;100.00
28167;BME280;15455;53.376;-6.262;2023-03-13T15:26:59;97887.31;;;8.56;100.00
28167;BME280;15455;53.376;-6.262;2023-03-13T15:29:45;97885.69;;;8.54;100.00
28167;BME280;15455;53.376;-6.262;2023-03-13T15:32:36;97898.59;;;8.57;100.00
28167;BME280;15455;53.376;-6.262;2023-03-13T15:35:29;97911.81;;;8.50;100.00
28167;BME280;15455;53.376;-6.262;2023-03-13T15:38:18;97918.44;;;8.35;100.00
28167;BME280;15455;53.376;-6.262;2023-03-13T15:41:04;97918.81;;;8.26;100.00
28167;BME280;15455;53.376;-6.262;2023-03-13T15:43:50;97928.19;;;8.07;100.00
28167;BME280;15455;53.376;-6.262;2023-03-13T15:46:36;97931.69;;;7.82;100.00
28167;BME280;15455;53.376;-6.262;2023-03-13T15:49:22;97945.06;;;7.71;100.00
28167;BME280;15455;53.376;-6.262;2023-03-13T15:52:19;97955.56;;;7.68;100.00
28167;BME280;15455;53.376;-6.262;2023-03-13T15:55:08;97966.81;;;7.69;100.00
28167;BME280;15455;53.376;-6.262;2023-03-13T15:57:54;97967.88;;;7.63;100.00
28167;BME280;15455;53.376;-6.262;2023-03-13T16:00:40;97958.31;;;7.63;100.00
28167;BME280;15455;53.376;-6.262;2023-03-13T16:03:27;97961.44;;;7.73;100.00
28167;BME280;15455;53.376;-6.262;2023-03-13T16:06:19;97961.97;;;7.83;100.00
28167;BME280;15455;53.376;-6.262;2023-03-13T16:09:05;97966.75;;;7.94;100.00
28167;BME280;15455;53.376;-6.262;2023-03-13T16:11:51;97970.38;;;7.90;100.00
28167;BME280;15455;53.376;-6.262;2023-03-13T16:14:37;97971.88;;;7.95;100.00
28167;BME280;15455;53.376;-6.262;2023-03-13T16:17:22;97972.06;;;7.91;100.00
28167;BME280;15455;53.376;-6.262;2023-03-13T16:20:17;97971.28;;;7.89;100.00
28167;BME280;15455;53.376;-6.262;2023-03-13T16:23:03;97960.44;;;7.77;100.00
28167;BME280;15455;53.376;-6.262;2023-03-13T16:25:49;97973.41;;;7.77;100.00
28167;BME280;15455;53.376;-6.262;2023-03-13T16:28:34;97975.09;;;7.78;100.00
28167;BME280;15455;53.376;-6.262;2023-03-13T16:31:22;97973.59;;;7.73;100.00
28167;BME280;15455;53.376;-6.262;2023-03-13T16:34:08;97983.06;;;7.74;100.00